BIL weather

Billings Logan International Airport
Billings, Montana, United States

Public forecast

Using degrees Fahrenheit for public forecast. Weather courtesy of forecast.io.

Current aviation weather report (METAR) for Billings Logan International Airport

Retrieved 2019/12/12 07:53 UTC (14 minutes ago):

KBIL 120753Z 24013KT 10SM BKN200 01/M07 A2989 RMK AO2 SLP143 T00061067

Aviation forecast (TAF) for Billings Logan International Airport

Retrieved 2019/12/12 06:39 UTC (1 hour ago):

TAF KBIL 120536Z 1206/1306 23013KT P6SM FEW070 BKN180 FM121200 24012KT P6SM OVC150 FM122100 26016KT P6SM BKN150